createdAt,value
2019-01-13T16:42:48.048Z,235.83
2019-01-13T16:45:25.054Z,252.53
2019-01-13T16:50:42.624Z,231.23
2019-01-13T16:53:15.483Z,410.30
2019-01-13T16:55:54.117Z,388.23
2019-01-13T16:58:28.712Z,395.50
2019-01-13T17:01:03.645Z,310.07
2019-01-13T17:03:40.562Z,259.37
2019-01-13T17:06:17.595Z,285.27
2019-01-13T17:08:57.753Z,251.13
2019-01-13T17:11:37.322Z,258.73
2019-01-13T17:14:13.276Z,277.47
2019-01-13T17:16:47.526Z,318.40
2019-01-13T17:21:54.486Z,322.00
2019-01-13T17:24:24.524Z,331.63
2019-01-13T17:26:54.096Z,314.57
2019-01-13T17:40:26.204Z,257.63
2019-01-13T17:48:46.286Z,237.80
2019-01-13T17:51:25.794Z,242.83
2019-01-13T18:10:31.758Z,226.57
2019-01-13T18:13:01.600Z,232.30
2019-01-13T18:15:31.556Z,229.03
2019-01-13T18:18:01.601Z,233.90
2019-01-13T18:20:31.934Z,224.40
2019-01-13T18:23:02.234Z,242.50
2019-01-13T18:25:32.807Z,231.90
2019-01-13T18:28:02.877Z,232.87
2019-01-13T18:30:33.020Z,218.47
2019-01-13T18:33:02.687Z,228.20
2019-01-13T18:35:32.260Z,226.77
2019-01-13T18:40:44.206Z,211.97
2019-01-13T18:43:21.111Z,223.33
2019-01-13T18:53:51.114Z,234.17
2019-01-13T18:56:25.027Z,229.53
2019-01-13T18:58:56.693Z,228.33
2019-01-13T19:01:26.767Z,223.63
2019-01-13T19:03:56.772Z,217.30
2019-01-13T19:06:26.833Z,228.90
2019-01-13T19:09:00.470Z,232.73
2019-01-13T19:14:07.292Z,315.57
2019-01-13T19:16:37.807Z,373.07
2019-01-13T19:19:08.220Z,249.93
2019-01-13T19:21:38.161Z,251.30
2019-01-13T19:24:08.298Z,252.93
2019-01-13T19:26:38.641Z,255.63
2019-01-13T19:29:08.828Z,253.47
2019-01-13T19:31:39.543Z,249.40
2019-01-13T19:34:09.917Z,258.50
2019-01-13T19:36:40.137Z,254.90
2019-01-13T19:39:10.092Z,263.60
2019-01-13T19:41:40.540Z,277.27
2019-01-13T19:44:10.916Z,269.90
2019-01-13T19:46:40.952Z,257.07
2019-01-13T19:49:11.253Z,245.40
2019-01-13T19:51:41.267Z,251.03
2019-01-13T19:54:11.228Z,251.97
2019-01-13T19:56:41.703Z,244.47
2019-01-13T19:59:11.582Z,235.97
2019-01-13T20:01:41.280Z,245.30
2019-01-13T20:04:11.143Z,258.93
2019-01-13T20:06:41.455Z,253.40
2019-01-13T20:09:11.443Z,246.03
2019-01-13T20:11:41.567Z,240.57
2019-01-13T20:14:11.177Z,231.13
2019-01-13T20:16:41.337Z,233.07
2019-01-13T20:19:11.731Z,221.73
2019-01-13T20:21:42.063Z,225.77
2019-01-13T20:24:12.198Z,227.60
2019-01-13T20:26:42.402Z,232.53
2019-01-13T20:29:12.189Z,218.90
2019-01-13T20:31:42.390Z,217.63
2019-01-13T20:34:12.194Z,215.50
2019-01-13T20:36:42.315Z,216.03
2019-01-13T20:39:12.324Z,221.73
2019-01-13T20:41:41.798Z,222.37
2019-01-13T20:44:11.347Z,221.40
2019-01-13T20:46:40.899Z,243.70
2019-01-13T20:49:11.182Z,242.50
2019-01-13T20:51:41.112Z,242.93
2019-01-13T20:54:10.395Z,227.70
2019-01-13T20:56:40.427Z,226.80
2019-01-13T20:59:10.423Z,226.70
2019-01-13T21:01:40.636Z,233.03
2019-01-13T21:04:10.561Z,225.73
2019-01-13T21:06:40.573Z,227.40
2019-01-13T21:09:10.094Z,226.23
2019-01-13T21:11:39.879Z,229.93
2019-01-13T21:14:09.909Z,229.67
2019-01-13T21:16:39.721Z,233.73
2019-01-13T21:19:09.746Z,224.43
2019-01-13T21:21:39.241Z,230.27
2019-01-13T21:24:09.071Z,227.57
2019-01-13T21:26:38.862Z,238.50
2019-01-13T21:29:08.387Z,232.90
2019-01-13T21:31:38.194Z,233.23
2019-01-13T21:34:07.689Z,245.70
2019-01-13T21:36:37.283Z,249.40
2019-01-13T21:39:07.319Z,254.77
2019-01-13T21:41:37.273Z,252.83
2019-01-13T21:44:07.437Z,251.77
2019-01-13T21:46:36.972Z,242.97
2019-01-13T21:49:06.986Z,255.10
2019-01-13T21:51:36.663Z,256.03
2019-01-13T21:54:10.863Z,243.63
2019-01-13T21:56:37.235Z,247.67
2019-01-13T21:59:07.140Z,262.27
2019-01-13T22:01:36.630Z,270.27
2019-01-13T22:04:06.707Z,281.87
2019-01-13T22:06:36.881Z,298.20
2019-01-13T22:09:07.192Z,309.27
2019-01-13T22:11:37.110Z,278.53
2019-01-13T22:14:06.800Z,263.70
2019-01-13T22:16:36.838Z,246.63
2019-01-13T22:19:06.761Z,238.60
2019-01-13T22:21:36.624Z,238.13
2019-01-13T22:24:06.800Z,238.97
2019-01-13T22:26:36.546Z,224.37
2019-01-13T22:29:06.161Z,223.57
2019-01-13T22:31:35.818Z,226.70
2019-01-13T22:34:05.851Z,230.73
2019-01-13T22:36:35.523Z,234.70
2019-01-13T22:39:04.947Z,247.53
2019-01-13T22:41:34.446Z,248.17
2019-01-13T22:44:03.935Z,244.77
2019-01-13T22:46:33.430Z,244.73
2019-01-13T22:49:02.960Z,240.20
2019-01-13T22:51:32.466Z,237.00
2019-01-13T22:54:02.281Z,249.00
2019-01-13T22:56:31.946Z,242.13
2019-01-13T22:59:01.554Z,244.43
2019-01-13T23:01:31.280Z,233.67
2019-01-13T23:04:00.596Z,234.07
2019-01-13T23:06:30.423Z,239.40
2019-01-13T23:09:00.788Z,248.07
2019-01-13T23:11:30.632Z,251.20
2019-01-13T23:14:00.684Z,252.77
2019-01-13T23:16:30.230Z,247.93
2019-01-13T23:19:00.038Z,234.00
2019-01-13T23:21:30.238Z,230.97
2019-01-13T23:24:00.228Z,224.27
2019-01-13T23:26:30.136Z,235.70
2019-01-13T23:29:00.563Z,239.00
2019-01-13T23:31:30.239Z,231.47
2019-01-13T23:33:59.784Z,297.13
2019-01-13T23:36:30.096Z,264.53
2019-01-13T23:39:00.525Z,274.80
2019-01-13T23:41:30.641Z,258.50
2019-01-13T23:44:00.665Z,240.57
2019-01-13T23:46:30.565Z,249.10
2019-01-13T23:49:00.896Z,254.37
2019-01-13T23:51:30.598Z,274.50
2019-01-13T23:54:00.117Z,259.57
2019-01-13T23:56:29.507Z,265.33
2019-01-13T23:58:59.295Z,236.87
